createdAt,value
2022-09-14T00:00:18.530Z,3.99
2022-09-14T00:02:44.935Z,3.90
2022-09-14T00:05:11.354Z,3.76
2022-09-14T00:07:37.693Z,3.78
2022-09-14T00:10:04.024Z,3.71
2022-09-14T00:12:30.362Z,3.63
2022-09-14T00:14:56.696Z,3.88
2022-09-14T00:17:23.053Z,3.69
2022-09-14T00:19:49.376Z,3.72
2022-09-14T00:22:15.710Z,3.53
2022-09-14T00:24:42.045Z,3.69
2022-09-14T00:27:08.365Z,3.51
2022-09-14T00:29:34.677Z,3.64
2022-09-14T00:32:01.058Z,3.88
2022-09-14T00:34:27.401Z,3.96
2022-09-14T00:36:53.737Z,3.84
2022-09-14T00:39:20.076Z,3.81
2022-09-14T00:41:46.415Z,3.76
2022-09-14T00:44:12.743Z,3.77
2022-09-14T00:46:39.076Z,3.91
2022-09-14T00:49:05.406Z,3.81
2022-09-14T00:51:31.736Z,3.86
2022-09-14T00:53:58.070Z,3.91
2022-09-14T00:56:24.401Z,3.97
2022-09-14T00:58:50.801Z,4.06
2022-09-14T01:01:17.296Z,3.85
2022-09-14T01:03:43.649Z,3.74
2022-09-14T01:06:09.971Z,4.09
2022-09-14T01:08:36.293Z,3.76
2022-09-14T01:11:02.621Z,4.00
2022-09-14T01:13:28.967Z,4.07
2022-09-14T01:15:55.313Z,3.98
2022-09-14T01:18:21.648Z,3.86
2022-09-14T01:20:47.976Z,3.91
2022-09-14T01:23:14.323Z,4.23
2022-09-14T01:25:40.666Z,3.94
2022-09-14T01:28:06.998Z,4.08
2022-09-14T01:30:33.335Z,4.04
2022-09-14T01:32:59.688Z,4.08
2022-09-14T01:35:26.016Z,3.86
2022-09-14T01:37:52.344Z,4.06
2022-09-14T01:40:18.747Z,4.16
2022-09-14T01:42:45.157Z,3.96
2022-09-14T01:45:11.493Z,3.67
2022-09-14T01:47:37.820Z,3.88
2022-09-14T01:50:04.149Z,4.00
2022-09-14T01:52:30.481Z,4.00
2022-09-14T01:54:56.814Z,4.00
2022-09-14T01:57:23.133Z,3.71
2022-09-14T01:59:49.461Z,4.08
2022-09-14T02:02:15.812Z,4.12
2022-09-14T02:04:42.554Z,3.99
2022-09-14T02:07:08.900Z,4.00
2022-09-14T02:09:35.248Z,3.95
2022-09-14T02:12:01.574Z,3.88
2022-09-14T02:14:27.892Z,4.12
2022-09-14T02:16:54.216Z,3.97
2022-09-14T02:19:23.707Z,3.99
2022-09-14T02:21:50.334Z,3.95
2022-09-14T02:24:16.689Z,4.04
2022-09-14T02:26:43.059Z,3.99
2022-09-14T02:29:09.389Z,3.91
2022-09-14T02:31:35.772Z,3.79
2022-09-14T02:34:02.105Z,3.86
2022-09-14T02:36:28.431Z,3.93
2022-09-14T02:38:54.764Z,3.91
2022-09-14T02:41:21.101Z,3.65
2022-09-14T02:43:47.463Z,3.89
2022-09-14T02:46:13.844Z,3.77
2022-09-14T02:48:40.192Z,3.79
2022-09-14T02:51:06.517Z,3.66
2022-09-14T02:53:32.862Z,3.80
2022-09-14T02:55:59.194Z,3.45
2022-09-14T02:58:25.533Z,3.41
2022-09-14T03:00:51.950Z,3.59
2022-09-14T03:03:18.298Z,3.42
2022-09-14T03:05:44.622Z,3.70
2022-09-14T03:08:10.949Z,3.52
2022-09-14T03:10:37.281Z,3.37
2022-09-14T03:13:03.636Z,3.42
2022-09-14T03:15:29.954Z,3.59
2022-09-14T03:17:56.286Z,3.52
2022-09-14T03:20:22.616Z,3.46
2022-09-14T03:22:48.946Z,3.42
2022-09-14T03:25:15.280Z,3.34
2022-09-14T03:27:41.595Z,3.11
2022-09-14T03:30:07.925Z,3.22
2022-09-14T03:32:34.243Z,3.30
2022-09-14T03:35:00.560Z,3.42
2022-09-14T03:37:26.871Z,3.32
2022-09-14T03:39:53.232Z,3.23
2022-09-14T03:42:19.607Z,3.35
2022-09-14T03:44:45.982Z,3.20
2022-09-14T03:47:12.312Z,3.37
2022-09-14T03:49:38.641Z,3.19
2022-09-14T03:52:04.973Z,3.46
2022-09-14T03:54:31.290Z,3.24
2022-09-14T03:56:57.621Z,3.40
2022-09-14T03:59:23.958Z,3.47
2022-09-14T04:01:50.323Z,3.11
2022-09-14T04:04:16.691Z,3.42
2022-09-14T04:06:43.017Z,3.41
2022-09-14T04:09:09.360Z,3.48
2022-09-14T04:11:35.688Z,3.57
2022-09-14T04:14:02.017Z,3.69
2022-09-14T04:16:28.395Z,3.68
2022-09-14T04:18:54.796Z,3.73
2022-09-14T04:21:21.121Z,3.78
2022-09-14T04:24:17.597Z,3.51
2022-09-14T04:26:33.751Z,4.03
2022-09-14T04:29:00.083Z,4.01
2022-09-14T04:31:26.548Z,4.39
2022-09-14T04:33:52.919Z,4.72
2022-09-14T04:36:19.248Z,4.65
2022-09-14T04:38:45.580Z,5.90
2022-09-14T04:41:11.911Z,7.33
2022-09-14T04:43:38.245Z,8.83
2022-09-14T04:46:04.604Z,10.27
2022-09-14T04:48:30.956Z,7.86
2022-09-14T04:50:57.286Z,10.93
2022-09-14T04:53:23.627Z,10.54
2022-09-14T04:55:49.971Z,14.03
2022-09-14T04:58:16.332Z,13.37
2022-09-14T05:00:42.658Z,14.67
2022-09-14T05:03:09.008Z,14.02
2022-09-14T05:05:35.363Z,14.88
2022-09-14T05:08:01.695Z,14.99
2022-09-14T05:10:28.033Z,14.57
2022-09-14T05:12:54.363Z,14.84
2022-09-14T05:15:20.698Z,14.64
2022-09-14T05:17:47.042Z,13.97
2022-09-14T05:20:13.374Z,13.75
2022-09-14T05:22:39.712Z,13.48
2022-09-14T05:25:06.047Z,14.23
2022-09-14T05:27:32.391Z,13.23
2022-09-14T05:29:58.715Z,13.64
2022-09-14T05:32:25.031Z,13.23
2022-09-14T05:34:51.366Z,13.22
2022-09-14T05:37:17.705Z,12.89
2022-09-14T05:39:44.094Z,12.84
2022-09-14T05:42:10.453Z,12.28
2022-09-14T05:44:36.789Z,12.55
2022-09-14T05:47:03.133Z,12.42
2022-09-14T05:49:29.460Z,11.91
2022-09-14T05:51:55.792Z,11.72
2022-09-14T05:54:22.140Z,11.71
2022-09-14T05:56:48.496Z,11.55
2022-09-14T05:59:14.846Z,11.63
2022-09-14T06:01:41.231Z,11.31
2022-09-14T06:04:07.591Z,11.56
2022-09-14T06:06:33.922Z,11.45
2022-09-14T06:09:00.281Z,11.47
2022-09-14T06:11:26.619Z,11.17
2022-09-14T06:13:53.010Z,11.01
2022-09-14T06:16:19.372Z,10.71
2022-09-14T06:18:45.713Z,10.62
2022-09-14T06:21:12.051Z,10.69
2022-09-14T06:23:38.394Z,10.89
2022-09-14T06:26:04.733Z,10.21
2022-09-14T06:28:31.094Z,10.71
2022-09-14T06:30:57.479Z,10.56
2022-09-14T06:33:23.828Z,10.36
2022-09-14T06:35:50.153Z,10.24
2022-09-14T06:38:16.480Z,10.16
2022-09-14T06:40:42.828Z,10.22
2022-09-14T06:43:09.182Z,9.91
2022-09-14T06:45:35.597Z,10.37
2022-09-14T06:48:01.940Z,10.06
2022-09-14T06:50:28.268Z,9.02
2022-09-14T06:52:54.623Z,9.73
2022-09-14T06:55:20.951Z,9.64
2022-09-14T06:57:47.289Z,9.37
2022-09-14T07:00:13.620Z,9.11
2022-09-14T07:02:39.990Z,9.20
2022-09-14T07:05:06.375Z,9.55
2022-09-14T07:07:32.720Z,8.91
2022-09-14T07:09:59.048Z,8.82
2022-09-14T07:12:25.386Z,9.20
2022-09-14T07:14:51.746Z,9.12
2022-09-14T07:17:18.070Z,8.58
2022-09-14T07:19:44.410Z,8.75
2022-09-14T07:22:10.737Z,8.70
2022-09-14T07:24:37.077Z,8.62
2022-09-14T07:27:03.418Z,8.65
2022-09-14T07:29:29.755Z,8.14
2022-09-14T07:31:56.096Z,8.41
2022-09-14T07:34:22.429Z,8.09
2022-09-14T07:36:48.752Z,8.46
2022-09-14T07:39:15.071Z,8.23
2022-09-14T07:41:41.403Z,8.13
2022-09-14T07:44:07.737Z,8.17
2022-09-14T07:46:34.071Z,8.51
2022-09-14T07:49:00.428Z,8.23
2022-09-14T07:51:26.747Z,7.78
2022-09-14T07:53:53.097Z,7.61
2022-09-14T07:56:19.440Z,7.63
2022-09-14T07:58:45.790Z,7.84
2022-09-14T08:01:12.182Z,7.40
2022-09-14T08:03:38.628Z,7.33
2022-09-14T08:06:04.969Z,7.44
2022-09-14T08:08:31.326Z,7.35
2022-09-14T08:10:57.653Z,7.57
2022-09-14T08:13:23.985Z,7.79
2022-09-14T08:15:50.316Z,7.51
2022-09-14T08:18:16.684Z,7.28
2022-09-14T08:20:43.025Z,7.42
2022-09-14T08:23:09.359Z,7.33
2022-09-14T08:25:35.676Z,7.05
2022-09-14T08:28:02.002Z,6.85
2022-09-14T08:30:28.331Z,7.16
2022-09-14T08:32:55.727Z,7.20
2022-09-14T08:35:53.656Z,6.95
2022-09-14T08:38:10.537Z,6.66
2022-09-14T08:40:36.904Z,7.09
2022-09-14T08:43:03.247Z,6.79
2022-09-14T08:45:29.641Z,6.43
2022-09-14T08:47:56.063Z,6.90
2022-09-14T08:50:22.392Z,6.62
2022-09-14T08:52:48.736Z,6.39
2022-09-14T08:55:15.065Z,6.11
2022-09-14T08:57:41.400Z,6.03
2022-09-14T09:00:07.748Z,6.12
2022-09-14T09:02:34.086Z,6.08
2022-09-14T09:05:00.428Z,6.49
2022-09-14T09:07:26.760Z,6.48
2022-09-14T09:09:53.101Z,6.07
2022-09-14T09:12:19.447Z,6.19
2022-09-14T09:14:45.782Z,6.44
2022-09-14T09:17:12.143Z,6.03
2022-09-14T09:19:38.479Z,5.96
2022-09-14T09:22:04.814Z,5.89
2022-09-14T09:24:34.128Z,5.76
2022-09-14T09:27:02.784Z,6.00
2022-09-14T09:29:29.105Z,6.09
2022-09-14T09:31:55.495Z,5.93
2022-09-14T09:34:21.853Z,5.97
2022-09-14T09:36:48.176Z,6.19
2022-09-14T09:39:14.506Z,5.57
2022-09-14T09:41:40.821Z,5.68
2022-09-14T09:44:07.159Z,5.67
2022-09-14T09:46:33.525Z,5.83
2022-09-14T09:48:59.886Z,5.65
2022-09-14T09:51:26.237Z,5.73
2022-09-14T09:53:52.565Z,5.48
2022-09-14T09:56:18.892Z,5.43
2022-09-14T09:58:45.255Z,5.57
2022-09-14T10:01:12.539Z,5.19
2022-09-14T10:03:39.038Z,6.01
2022-09-14T10:06:05.379Z,5.38
2022-09-14T10:08:31.707Z,5.22
2022-09-14T10:10:58.039Z,5.12
2022-09-14T10:13:24.370Z,5.75
2022-09-14T10:15:50.748Z,5.43
2022-09-14T10:18:17.131Z,5.42
2022-09-14T10:20:43.469Z,5.55
2022-09-14T10:23:09.804Z,5.28
2022-09-14T10:25:36.137Z,5.32
2022-09-14T10:28:02.469Z,5.49
2022-09-14T10:30:28.810Z,5.03
2022-09-14T10:32:55.151Z,5.35
2022-09-14T10:35:21.478Z,5.43
2022-09-14T10:37:47.808Z,5.31
2022-09-14T10:40:14.178Z,5.03
2022-09-14T10:42:40.544Z,5.22
2022-09-14T10:45:06.885Z,5.13
2022-09-14T10:47:33.226Z,5.30
2022-09-14T10:49:59.540Z,4.81
2022-09-14T10:52:25.876Z,5.06
2022-09-14T10:54:53.439Z,4.99
2022-09-14T10:57:20.695Z,5.54
2022-09-14T10:59:47.012Z,4.91
2022-09-14T11:02:13.443Z,4.70
2022-09-14T11:04:39.876Z,5.23
2022-09-14T11:07:06.197Z,4.90
2022-09-14T11:09:32.528Z,5.12
2022-09-14T11:11:58.873Z,5.10
2022-09-14T11:14:25.202Z,5.20
2022-09-14T11:16:51.534Z,5.19
2022-09-14T11:19:17.874Z,5.19
2022-09-14T11:21:44.210Z,4.98
2022-09-14T11:24:10.545Z,4.53
2022-09-14T11:26:41.571Z,4.85
2022-09-14T11:29:08.593Z,4.96
2022-09-14T11:31:35.031Z,5.05
2022-09-14T11:34:01.421Z,4.97
2022-09-14T11:36:27.747Z,4.71
2022-09-14T11:38:54.087Z,5.07
2022-09-14T11:41:20.427Z,4.94
2022-09-14T11:43:46.775Z,5.32
2022-09-14T11:46:13.156Z,4.98
2022-09-14T11:48:42.693Z,4.95
2022-09-14T11:51:09.638Z,4.64
2022-09-14T11:53:35.966Z,4.72
2022-09-14T11:56:02.287Z,4.74
2022-09-14T11:58:28.612Z,4.56
2022-09-14T12:00:54.943Z,4.53
2022-09-14T12:03:21.346Z,4.72
2022-09-14T12:05:47.759Z,4.64
2022-09-14T12:08:14.087Z,4.65
2022-09-14T12:10:43.992Z,4.66
2022-09-14T12:13:12.150Z,4.53
2022-09-14T12:15:38.501Z,4.38
2022-09-14T12:18:04.915Z,4.38
2022-09-14T12:20:31.228Z,4.60
2022-09-14T12:22:57.568Z,4.36
2022-09-14T12:25:23.901Z,4.47
2022-09-14T12:27:50.226Z,4.34
2022-09-14T12:30:16.563Z,4.30
2022-09-14T12:32:42.937Z,4.45
2022-09-14T12:35:09.261Z,4.09
2022-09-14T12:37:35.593Z,4.10
2022-09-14T12:40:02.006Z,4.24
2022-09-14T12:42:28.372Z,4.05
2022-09-14T12:44:54.714Z,4.16
2022-09-14T12:47:21.055Z,4.39
2022-09-14T12:49:47.379Z,4.31
2022-09-14T12:52:13.720Z,3.90
2022-09-14T12:54:40.052Z,3.86
2022-09-14T12:57:06.382Z,4.19
2022-09-14T12:59:32.709Z,3.82
2022-09-14T13:01:59.163Z,3.95
2022-09-14T13:04:25.557Z,4.01
2022-09-14T13:06:51.889Z,3.96
2022-09-14T13:09:18.221Z,3.94
2022-09-14T13:11:44.570Z,3.96
2022-09-14T13:14:10.901Z,3.83
2022-09-14T13:16:37.245Z,3.77
2022-09-14T13:19:03.573Z,3.93
2022-09-14T13:21:29.902Z,3.75
2022-09-14T13:23:56.233Z,3.78
2022-09-14T13:26:22.554Z,3.54
2022-09-14T13:28:48.876Z,3.62
2022-09-14T13:31:15.236Z,3.88
2022-09-14T13:33:41.612Z,3.53
2022-09-14T13:36:07.955Z,3.67
2022-09-14T13:38:34.308Z,3.54
2022-09-14T13:41:00.637Z,3.58
2022-09-14T13:43:26.987Z,3.57
2022-09-14T13:45:53.381Z,3.76
2022-09-14T13:48:19.755Z,3.62
2022-09-14T13:50:46.081Z,3.63
2022-09-14T13:53:12.408Z,3.63
2022-09-14T13:55:38.741Z,3.75
2022-09-14T13:58:05.076Z,3.54
2022-09-14T14:00:31.421Z,3.53
2022-09-14T14:02:57.857Z,3.45
2022-09-14T14:05:24.360Z,3.45
2022-09-14T14:07:50.697Z,3.39
2022-09-14T14:10:20.443Z,3.15
2022-09-14T14:12:50.648Z,3.48
2022-09-14T14:15:17.281Z,3.40
2022-09-14T14:17:43.620Z,3.59
2022-09-14T14:20:09.952Z,3.47
2022-09-14T14:22:36.318Z,3.31
2022-09-14T14:25:13.300Z,3.42
2022-09-14T14:27:40.384Z,3.16
2022-09-14T14:30:06.714Z,3.38
2022-09-14T14:32:33.054Z,3.39
2022-09-14T14:34:59.383Z,3.36
2022-09-14T14:37:25.717Z,3.27
2022-09-14T14:39:52.107Z,3.09
2022-09-14T14:42:18.462Z,3.22
2022-09-14T14:44:44.788Z,3.15
2022-09-14T14:47:11.117Z,3.11
2022-09-14T14:49:37.449Z,3.12
2022-09-14T14:52:03.825Z,3.14
2022-09-14T14:54:30.163Z,3.29
2022-09-14T14:56:56.492Z,3.31
2022-09-14T14:59:22.819Z,3.10
2022-09-14T15:01:49.153Z,3.33
2022-09-14T15:04:15.489Z,2.97
2022-09-14T15:06:41.804Z,3.14
2022-09-14T15:09:08.128Z,3.04
2022-09-14T15:11:34.470Z,3.09
2022-09-14T15:14:00.806Z,3.01
2022-09-14T15:16:27.154Z,3.23
2022-09-14T15:18:53.504Z,3.07
2022-09-14T15:21:19.825Z,2.97
2022-09-14T15:23:46.157Z,3.02
2022-09-14T15:26:12.484Z,3.04
2022-09-14T15:28:38.820Z,3.14
2022-09-14T15:31:07.844Z,3.30
2022-09-14T15:33:34.466Z,3.13
2022-09-14T15:36:00.802Z,3.16
2022-09-14T15:38:27.136Z,2.94
2022-09-14T15:40:53.465Z,2.89
2022-09-14T15:43:19.814Z,3.10
2022-09-14T15:45:46.196Z,3.18
2022-09-14T15:48:12.568Z,3.05
2022-09-14T15:50:38.892Z,3.01
2022-09-14T15:53:05.224Z,3.13
2022-09-14T15:55:31.574Z,2.85
2022-09-14T15:57:57.911Z,2.98
2022-09-14T16:00:24.248Z,3.11
2022-09-14T16:02:50.587Z,2.98
2022-09-14T16:05:16.920Z,2.86
2022-09-14T16:07:43.250Z,2.76
2022-09-14T16:10:09.581Z,2.88
2022-09-14T16:12:35.901Z,2.89
2022-09-14T16:15:02.234Z,2.80
2022-09-14T16:17:28.550Z,2.99
2022-09-14T16:19:56.004Z,2.73
2022-09-14T16:22:22.391Z,2.98
2022-09-14T16:24:48.711Z,3.01
2022-09-14T16:27:15.077Z,2.98
2022-09-14T16:29:41.408Z,2.72
2022-09-14T16:32:07.782Z,2.60
2022-09-14T16:34:34.166Z,2.86
2022-09-14T16:37:00.485Z,2.93
2022-09-14T16:39:26.807Z,2.86
2022-09-14T16:41:53.140Z,2.73
2022-09-14T16:44:19.474Z,2.80
2022-09-14T16:46:45.810Z,2.80
2022-09-14T16:49:12.138Z,2.67
2022-09-14T16:51:38.468Z,2.69
2022-09-14T16:54:04.803Z,2.81
2022-09-14T16:56:31.125Z,2.84
2022-09-14T16:58:57.466Z,2.58
2022-09-14T17:01:23.917Z,2.63
2022-09-14T17:03:50.469Z,2.90
2022-09-14T17:06:16.878Z,3.00
2022-09-14T17:08:44.107Z,2.48
2022-09-14T17:11:10.523Z,2.63
2022-09-14T17:13:36.857Z,2.79
2022-09-14T17:16:03.258Z,2.72
2022-09-14T17:18:29.614Z,2.65
2022-09-14T17:20:55.941Z,2.52
2022-09-14T17:23:22.278Z,2.66
2022-09-14T17:25:48.608Z,2.47
2022-09-14T17:28:14.943Z,2.65
2022-09-14T17:30:41.279Z,2.48
2022-09-14T17:33:07.605Z,2.64
2022-09-14T17:35:33.938Z,2.78
2022-09-14T17:38:00.264Z,2.64
2022-09-14T17:40:26.615Z,2.69
2022-09-14T17:42:52.990Z,2.48
2022-09-14T17:45:19.320Z,2.66
2022-09-14T17:47:45.672Z,2.62
2022-09-14T17:50:12.000Z,2.78
2022-09-14T17:52:38.328Z,2.56
2022-09-14T17:55:04.646Z,2.44
2022-09-14T17:57:30.976Z,2.42
2022-09-14T17:59:57.304Z,2.55
2022-09-14T18:02:23.652Z,2.54
2022-09-14T18:04:49.986Z,2.55
2022-09-14T18:07:16.322Z,2.52
2022-09-14T18:09:42.676Z,2.48
2022-09-14T18:12:09.009Z,2.53
2022-09-14T18:14:35.342Z,2.75
2022-09-14T18:17:01.664Z,2.68
2022-09-14T18:19:27.979Z,2.58
2022-09-14T18:21:54.303Z,2.81
2022-09-14T18:24:20.635Z,2.50
2022-09-14T18:26:46.973Z,2.74
2022-09-14T18:29:13.314Z,2.65
2022-09-14T18:31:39.681Z,2.41
2022-09-14T18:34:06.047Z,2.58
2022-09-14T18:36:32.394Z,2.52
2022-09-14T18:38:58.802Z,2.48
2022-09-14T18:41:25.186Z,2.44
2022-09-14T18:43:51.604Z,2.49
2022-09-14T18:46:24.498Z,2.23
2022-09-14T18:48:54.120Z,2.49
2022-09-14T18:51:20.458Z,2.25
2022-09-14T18:53:46.900Z,2.35
2022-09-14T18:56:13.300Z,2.53
2022-09-14T18:58:39.643Z,2.35
2022-09-14T19:01:06.089Z,2.05
2022-09-14T19:03:32.492Z,2.30
2022-09-14T19:05:58.829Z,2.37
2022-09-14T19:08:25.157Z,2.48
2022-09-14T19:10:51.492Z,2.24
2022-09-14T19:13:17.816Z,2.19
2022-09-14T19:15:44.268Z,2.34
2022-09-14T19:18:10.607Z,2.26
2022-09-14T19:21:02.064Z,2.08
2022-09-14T19:23:23.259Z,2.08
2022-09-14T19:25:49.601Z,2.15
2022-09-14T19:28:15.935Z,2.02
2022-09-14T19:30:42.272Z,2.15
2022-09-14T19:33:08.630Z,2.44
2022-09-14T19:35:34.972Z,2.17
2022-09-14T19:38:01.301Z,2.82
2022-09-14T19:40:27.740Z,2.83
2022-09-14T19:42:54.189Z,2.73
2022-09-14T19:45:20.541Z,2.67
2022-09-14T19:47:46.872Z,2.94
2022-09-14T19:50:13.215Z,2.79
2022-09-14T19:52:39.549Z,2.81
2022-09-14T19:55:05.872Z,2.92
2022-09-14T19:57:32.193Z,2.97
2022-09-14T19:59:58.513Z,3.03
2022-09-14T20:02:24.970Z,3.20
2022-09-14T20:04:51.401Z,2.96
2022-09-14T20:07:17.735Z,2.82
2022-09-14T20:09:44.065Z,2.96
2022-09-14T20:12:10.396Z,2.87
2022-09-14T20:14:36.742Z,2.89
2022-09-14T20:17:03.083Z,2.65
2022-09-14T20:19:29.408Z,2.95
2022-09-14T20:21:55.739Z,2.82
2022-09-14T20:24:22.272Z,2.77
2022-09-14T20:26:48.830Z,2.69
2022-09-14T20:29:15.169Z,2.86
2022-09-14T20:31:41.516Z,2.81
2022-09-14T20:34:07.857Z,2.72
2022-09-14T20:36:34.187Z,2.73
2022-09-14T20:39:00.528Z,3.13
2022-09-14T20:41:26.866Z,2.72
2022-09-14T20:43:53.197Z,2.54
2022-09-14T20:46:19.573Z,2.53
2022-09-14T20:48:45.946Z,2.54
2022-09-14T20:51:12.287Z,2.58
2022-09-14T20:53:38.613Z,2.46
2022-09-14T20:56:04.939Z,2.34
2022-09-14T20:58:31.282Z,2.18
2022-09-14T21:00:57.599Z,2.41
2022-09-14T21:03:23.944Z,2.50
2022-09-14T21:05:50.272Z,2.27
2022-09-14T21:08:16.606Z,2.38
2022-09-14T21:10:42.937Z,2.16
2022-09-14T21:13:09.283Z,2.32
2022-09-14T21:15:35.663Z,2.30
2022-09-14T21:18:02.017Z,2.13
2022-09-14T21:20:28.391Z,2.11
2022-09-14T21:22:54.727Z,2.07
2022-09-14T21:25:21.093Z,1.84
2022-09-14T21:27:47.434Z,2.27
2022-09-14T21:30:13.758Z,2.10
2022-09-14T21:32:40.094Z,2.06
2022-09-14T21:35:06.429Z,1.89
2022-09-14T21:37:32.754Z,2.05
2022-09-14T21:39:59.122Z,2.22
2022-09-14T21:42:25.498Z,1.96
2022-09-14T21:44:51.900Z,1.98
2022-09-14T21:47:18.223Z,1.75
2022-09-14T21:49:44.569Z,1.76
2022-09-14T21:52:10.891Z,1.77
2022-09-14T21:54:37.223Z,1.91
2022-09-14T21:57:03.557Z,2.07
2022-09-14T21:59:29.880Z,2.00
2022-09-14T22:01:56.255Z,1.91
2022-09-14T22:04:22.627Z,1.67
2022-09-14T22:06:48.965Z,1.95
2022-09-14T22:09:15.305Z,1.75
2022-09-14T22:11:41.639Z,1.76
2022-09-14T22:14:07.956Z,1.91
2022-09-14T22:16:34.287Z,2.01
2022-09-14T22:19:00.617Z,1.82
2022-09-14T22:21:26.940Z,1.77
2022-09-14T22:23:53.273Z,1.90
2022-09-14T22:26:19.605Z,1.60
2022-09-14T22:28:45.937Z,1.69
2022-09-14T22:31:12.291Z,1.66
2022-09-14T22:33:38.658Z,1.75
2022-09-14T22:36:05.017Z,1.84
2022-09-14T22:38:31.348Z,1.80
2022-09-14T22:40:57.677Z,1.87
2022-09-14T22:43:24.006Z,1.65
2022-09-14T22:45:50.409Z,1.67
2022-09-14T22:48:16.774Z,1.79
2022-09-14T22:50:43.106Z,1.84
2022-09-14T22:53:09.437Z,1.61
2022-09-14T22:55:35.777Z,1.55
2022-09-14T22:58:02.117Z,1.83
2022-09-14T23:00:28.445Z,1.78
2022-09-14T23:02:54.881Z,1.64
2022-09-14T23:05:21.289Z,1.61
2022-09-14T23:07:47.626Z,1.62
2022-09-14T23:10:13.957Z,1.75
2022-09-14T23:12:40.289Z,1.65
2022-09-14T23:15:06.648Z,1.69
2022-09-14T23:17:32.987Z,1.63
2022-09-14T23:19:59.361Z,1.65
2022-09-14T23:22:25.760Z,1.63
2022-09-14T23:24:52.127Z,1.64
2022-09-14T23:27:18.451Z,1.60
2022-09-14T23:29:44.790Z,1.61
2022-09-14T23:32:11.121Z,1.63
2022-09-14T23:34:37.458Z,1.68
2022-09-14T23:37:03.784Z,1.71
2022-09-14T23:39:30.113Z,1.66
2022-09-14T23:41:56.437Z,1.58
2022-09-14T23:44:22.784Z,1.68
2022-09-14T23:46:49.114Z,1.72
2022-09-14T23:49:15.458Z,1.75
2022-09-14T23:51:41.793Z,1.70
2022-09-14T23:54:08.121Z,1.53
2022-09-14T23:56:34.448Z,1.73
2022-09-14T23:59:00.777Z,1.61
